sensor_id;sensor_type;location;lat;lon;timestamp;temperature;humidity
41904;DHT22;27586;51.124;4.182;2022-09-12T00:02:22;16.10;99.90
41904;DHT22;27586;51.124;4.182;2022-09-12T00:04:48;16.20;99.90
41904;DHT22;27586;51.124;4.182;2022-09-12T00:07:14;16.10;99.90
41904;DHT22;27586;51.124;4.182;2022-09-12T00:09:39;16.10;99.90
41904;DHT22;27586;51.124;4.182;2022-09-12T00:12:06;16.10;99.90
41904;DHT22;27586;51.124;4.182;2022-09-12T00:14:32;16.10;99.90
41904;DHT22;27586;51.124;4.182;2022-09-12T00:16:58;16.10;99.90
41904;DHT22;27586;51.124;4.182;2022-09-12T00:19:29;16.10;99.90
41904;DHT22;27586;51.124;4.182;2022-09-12T00:21:55;16.10;99.90
41904;DHT22;27586;51.124;4.182;2022-09-12T00:24:21;16.00;99.90
41904;DHT22;27586;51.124;4.182;2022-09-12T00:26:47;16.00;99.90
41904;DHT22;27586;51.124;4.182;2022-09-12T00:29:18;16.00;99.90
41904;DHT22;27586;51.124;4.182;2022-09-12T00:31:45;16.00;99.90
41904;DHT22;27586;51.124;4.182;2022-09-12T00:34:10;16.00;99.90
41904;DHT22;27586;51.124;4.182;2022-09-12T00:36:37;15.90;99.90
41904;DHT22;27586;51.124;4.182;2022-09-12T00:39:03;15.90;99.90
41904;DHT22;27586;51.124;4.182;2022-09-12T00:41:34;15.90;99.90
41904;DHT22;27586;51.124;4.182;2022-09-12T00:47:12;15.90;99.90
41904;DHT22;27586;51.124;4.182;2022-09-12T00:52:10;15.80;99.90
41904;DHT22;27586;51.124;4.182;2022-09-12T00:54:46;15.80;99.90
41904;DHT22;27586;51.124;4.182;2022-09-12T00:57:14;15.80;99.90
41904;DHT22;27586;51.124;4.182;2022-09-12T00:59:45;15.80;99.90
41904;DHT22;27586;51.124;4.182;2022-09-12T01:02:13;15.80;99.90
41904;DHT22;27586;51.124;4.182;2022-09-12T01:04:40;15.80;99.90
41904;DHT22;27586;51.124;4.182;2022-09-12T01:07:07;15.80;99.90
41904;DHT22;27586;51.124;4.182;2022-09-12T01:09:33;15.70;99.90
41904;DHT22;27586;51.124;4.182;2022-09-12T01:12:01;15.70;99.90
41904;DHT22;27586;51.124;4.182;2022-09-12T01:14:27;15.70;99.90
41904;DHT22;27586;51.124;4.182;2022-09-12T01:16:53;15.70;99.90
41904;DHT22;27586;51.124;4.182;2022-09-12T01:46:47;15.70;99.90
41904;DHT22;27586;51.124;4.182;2022-09-12T01:49:25;15.70;99.90
41904;DHT22;27586;51.124;4.182;2022-09-12T01:51:56;15.70;99.90
41904;DHT22;27586;51.124;4.182;2022-09-12T01:54:36;15.70;99.90
41904;DHT22;27586;51.124;4.182;2022-09-12T01:57:11;15.70;99.90
41904;DHT22;27586;51.124;4.182;2022-09-12T01:59:50;15.60;99.90
41904;DHT22;27586;51.124;4.182;2022-09-12T02:02:22;15.60;99.90
41904;DHT22;27586;51.124;4.182;2022-09-12T02:04:50;15.60;99.90
41904;DHT22;27586;51.124;4.182;2022-09-12T02:10:06;15.60;99.90
41904;DHT22;27586;51.124;4.182;2022-09-12T02:12:53;15.60;99.90
41904;DHT22;27586;51.124;4.182;2022-09-12T02:15:26;15.60;99.90
41904;DHT22;27586;51.124;4.182;2022-09-12T02:17:55;15.60;99.90
41904;DHT22;27586;51.124;4.182;2022-09-12T02:20:25;15.60;99.90
41904;DHT22;27586;51.124;4.182;2022-09-12T02:22:54;15.60;99.90
41904;DHT22;27586;51.124;4.182;2022-09-12T02:25:21;15.50;99.90
41904;DHT22;27586;51.124;4.182;2022-09-12T02:27:51;15.50;99.90
41904;DHT22;27586;51.124;4.182;2022-09-12T02:30:18;15.50;99.90
41904;DHT22;27586;51.124;4.182;2022-09-12T02:38:24;15.50;99.90
41904;DHT22;27586;51.124;4.182;2022-09-12T02:40:51;15.50;99.90
41904;DHT22;27586;51.124;4.182;2022-09-12T02:43:17;15.50;99.90
41904;DHT22;27586;51.124;4.182;2022-09-12T02:45:43;15.50;99.90
41904;DHT22;27586;51.124;4.182;2022-09-12T02:48:15;15.50;99.90
41904;DHT22;27586;51.124;4.182;2022-09-12T02:50:42;15.50;99.90
41904;DHT22;27586;51.124;4.182;2022-09-12T02:53:08;15.50;99.90
41904;DHT22;27586;51.124;4.182;2022-09-12T02:55:35;15.50;99.90
41904;DHT22;27586;51.124;4.182;2022-09-12T02:58:05;15.50;99.90
41904;DHT22;27586;51.124;4.182;2022-09-12T03:00:36;15.50;99.90
41904;DHT22;27586;51.124;4.182;2022-09-12T03:03:35;15.40;99.90
41904;DHT22;27586;51.124;4.182;2022-09-12T03:06:13;15.40;99.90
41904;DHT22;27586;51.124;4.182;2022-09-12T03:08:47;15.40;99.90
41904;DHT22;27586;51.124;4.182;2022-09-12T03:14:43;15.50;99.90
41904;DHT22;27586;51.124;4.182;2022-09-12T03:17:43;15.60;99.90
41904;DHT22;27586;51.124;4.182;2022-09-12T03:21:03;15.60;99.90
41904;DHT22;27586;51.124;4.182;2022-09-12T03:23:45;15.50;99.90
41904;DHT22;27586;51.124;4.182;2022-09-12T03:26:27;15.50;99.90
41904;DHT22;27586;51.124;4.182;2022-09-12T03:28:55;15.50;99.90
41904;DHT22;27586;51.124;4.182;2022-09-12T03:31:22;15.50;99.90
41904;DHT22;27586;51.124;4.182;2022-09-12T03:33:47;15.40;99.90
41904;DHT22;27586;51.124;4.182;2022-09-12T03:36:21;15.40;99.90
41904;DHT22;27586;51.124;4.182;2022-09-12T03:38:47;15.40;99.90
41904;DHT22;27586;51.124;4.182;2022-09-12T03:41:12;15.40;99.90
41904;DHT22;27586;51.124;4.182;2022-09-12T03:43:39;15.40;99.90
41904;DHT22;27586;51.124;4.182;2022-09-12T03:46:05;15.30;99.90
41904;DHT22;27586;51.124;4.182;2022-09-12T03:48:30;15.30;99.90
41904;DHT22;27586;51.124;4.182;2022-09-12T03:51:03;15.30;99.90
41904;DHT22;27586;51.124;4.182;2022-09-12T03:53:29;15.30;99.90
41904;DHT22;27586;51.124;4.182;2022-09-12T03:55:56;15.30;99.90
41904;DHT22;27586;51.124;4.182;2022-09-12T03:58:22;15.30;99.90
41904;DHT22;27586;51.124;4.182;2022-09-12T04:00:48;15.30;99.90
41904;DHT22;27586;51.124;4.182;2022-09-12T04:03:14;15.30;99.90
41904;DHT22;27586;51.124;4.182;2022-09-12T04:05:39;15.30;99.90
41904;DHT22;27586;51.124;4.182;2022-09-12T04:08:05;15.30;99.90
41904;DHT22;27586;51.124;4.182;2022-09-12T04:10:31;15.30;99.90
41904;DHT22;27586;51.124;4.182;2022-09-12T04:12:57;15.30;99.90
41904;DHT22;27586;51.124;4.182;2022-09-12T04:15:23;15.10;99.90
41904;DHT22;27586;51.124;4.182;2022-09-12T04:17:48;15.10;99.90
41904;DHT22;27586;51.124;4.182;2022-09-12T04:20:14;15.10;99.90
41904;DHT22;27586;51.124;4.182;2022-09-12T04:22:40;15.10;99.90
41904;DHT22;27586;51.124;4.182;2022-09-12T04:25:06;15.00;99.90
41904;DHT22;27586;51.124;4.182;2022-09-12T04:27:32;15.10;99.90
41904;DHT22;27586;51.124;4.182;2022-09-12T04:29:59;15.00;99.90
41904;DHT22;27586;51.124;4.182;2022-09-12T04:32:25;15.00;99.90
41904;DHT22;27586;51.124;4.182;2022-09-12T04:34:51;15.00;99.90
41904;DHT22;27586;51.124;4.182;2022-09-12T04:37:17;14.90;99.90
41904;DHT22;27586;51.124;4.182;2022-09-12T04:39:42;15.00;99.90
41904;DHT22;27586;51.124;4.182;2022-09-12T04:42:08;14.90;99.90
41904;DHT22;27586;51.124;4.182;2022-09-12T04:44:34;14.80;99.90
41904;DHT22;27586;51.124;4.182;2022-09-12T04:47:00;14.60;99.90
41904;DHT22;27586;51.124;4.182;2022-09-12T04:49:25;14.70;99.90
41904;DHT22;27586;51.124;4.182;2022-09-12T04:51:52;14.60;99.90
41904;DHT22;27586;51.124;4.182;2022-09-12T04:54:19;14.60;99.90
41904;DHT22;27586;51.124;4.182;2022-09-12T04:56:47;14.70;99.90
41904;DHT22;27586;51.124;4.182;2022-09-12T04:59:14;14.70;99.90
41904;DHT22;27586;51.124;4.182;2022-09-12T05:01:41;14.70;99.90
41904;DHT22;27586;51.124;4.182;2022-09-12T05:04:09;14.70;99.90
41904;DHT22;27586;51.124;4.182;2022-09-12T05:06:36;14.70;99.90
41904;DHT22;27586;51.124;4.182;2022-09-12T05:09:04;14.70;99.90
41904;DHT22;27586;51.124;4.182;2022-09-12T05:11:32;14.70;99.90
41904;DHT22;27586;51.124;4.182;2022-09-12T05:13:58;14.70;99.90
41904;DHT22;27586;51.124;4.182;2022-09-12T05:16:26;14.70;99.90
41904;DHT22;27586;51.124;4.182;2022-09-12T05:18:51;14.70;99.90
41904;DHT22;27586;51.124;4.182;2022-09-12T05:21:19;14.70;99.90
41904;DHT22;27586;51.124;4.182;2022-09-12T05:23:46;14.70;99.90
41904;DHT22;27586;51.124;4.182;2022-09-12T05:26:15;14.70;99.90
41904;DHT22;27586;51.124;4.182;2022-09-12T05:28:42;14.60;99.90
41904;DHT22;27586;51.124;4.182;2022-09-12T05:33:37;14.60;99.90
41904;DHT22;27586;51.124;4.182;2022-09-12T05:36:05;14.60;99.90
41904;DHT22;27586;51.124;4.182;2022-09-12T05:38:33;14.60;99.90
41904;DHT22;27586;51.124;4.182;2022-09-12T05:41:11;14.60;99.90
41904;DHT22;27586;51.124;4.182;2022-09-12T05:43:38;14.60;99.90
41904;DHT22;27586;51.124;4.182;2022-09-12T05:46:08;14.60;99.90
41904;DHT22;27586;51.124;4.182;2022-09-12T05:48:37;14.60;99.90
41904;DHT22;27586;51.124;4.182;2022-09-12T05:51:09;14.60;99.90
41904;DHT22;27586;51.124;4.182;2022-09-12T05:53:36;14.60;99.90
41904;DHT22;27586;51.124;4.182;2022-09-12T05:56:10;14.60;99.90
41904;DHT22;27586;51.124;4.182;2022-09-12T05:58:39;14.60;99.90
41904;DHT22;27586;51.124;4.182;2022-09-12T06:01:08;14.70;99.90
41904;DHT22;27586;51.124;4.182;2022-09-12T06:03:38;14.70;99.90
41904;DHT22;27586;51.124;4.182;2022-09-12T06:06:05;14.70;99.90
41904;DHT22;27586;51.124;4.182;2022-09-12T06:08:32;14.70;99.90
41904;DHT22;27586;51.124;4.182;2022-09-12T06:11:03;14.80;99.90
41904;DHT22;27586;51.124;4.182;2022-09-12T06:13:33;14.80;99.90
41904;DHT22;27586;51.124;4.182;2022-09-12T06:16:10;15.00;99.90
41904;DHT22;27586;51.124;4.182;2022-09-12T06:18:37;15.00;99.90
41904;DHT22;27586;51.124;4.182;2022-09-12T06:21:04;15.20;99.90
41904;DHT22;27586;51.124;4.182;2022-09-12T06:23:30;15.30;99.90
41904;DHT22;27586;51.124;4.182;2022-09-12T06:25:56;15.50;99.90
41904;DHT22;27586;51.124;4.182;2022-09-12T06:28:22;15.60;99.90
41904;DHT22;27586;51.124;4.182;2022-09-12T06:30:47;15.80;99.90
41904;DHT22;27586;51.124;4.182;2022-09-12T06:33:14;15.80;99.90
41904;DHT22;27586;51.124;4.182;2022-09-12T06:35:40;15.90;99.90
41904;DHT22;27586;51.124;4.182;2022-09-12T06:38:05;16.00;99.90
41904;DHT22;27586;51.124;4.182;2022-09-12T06:40:32;16.00;99.90
41904;DHT22;27586;51.124;4.182;2022-09-12T06:42:58;16.10;99.90
41904;DHT22;27586;51.124;4.182;2022-09-12T06:45:24;16.20;99.90
41904;DHT22;27586;51.124;4.182;2022-09-12T06:47:50;16.30;99.90
41904;DHT22;27586;51.124;4.182;2022-09-12T06:50:16;16.40;99.90
41904;DHT22;27586;51.124;4.182;2022-09-12T06:52:42;16.50;99.90
41904;DHT22;27586;51.124;4.182;2022-09-12T06:55:09;16.50;99.90
41904;DHT22;27586;51.124;4.182;2022-09-12T06:57:34;16.60;99.90
41904;DHT22;27586;51.124;4.182;2022-09-12T07:00:06;16.50;99.90
41904;DHT22;27586;51.124;4.182;2022-09-12T07:02:32;16.70;99.90
41904;DHT22;27586;51.124;4.182;2022-09-12T07:04:58;16.80;99.90
41904;DHT22;27586;51.124;4.182;2022-09-12T07:07:23;16.90;99.90
41904;DHT22;27586;51.124;4.182;2022-09-12T07:09:49;16.90;99.90
41904;DHT22;27586;51.124;4.182;2022-09-12T07:12:15;17.10;99.90
41904;DHT22;27586;51.124;4.182;2022-09-12T07:14:40;17.20;99.90
41904;DHT22;27586;51.124;4.182;2022-09-12T07:17:06;17.30;99.90
41904;DHT22;27586;51.124;4.182;2022-09-12T07:19:33;17.30;99.90
41904;DHT22;27586;51.124;4.182;2022-09-12T07:21:59;17.40;99.90
41904;DHT22;27586;51.124;4.182;2022-09-12T07:24:25;17.50;99.90
41904;DHT22;27586;51.124;4.182;2022-09-12T07:26:51;17.60;99.90
41904;DHT22;27586;51.124;4.182;2022-09-12T07:29:17;17.60;99.90
41904;DHT22;27586;51.124;4.182;2022-09-12T07:31:43;17.70;99.90
41904;DHT22;27586;51.124;4.182;2022-09-12T07:34:09;17.80;99.90
41904;DHT22;27586;51.124;4.182;2022-09-12T07:36:35;17.90;99.90
41904;DHT22;27586;51.124;4.182;2022-09-12T07:39:00;18.00;99.90
41904;DHT22;27586;51.124;4.182;2022-09-12T07:41:28;18.10;99.90
41904;DHT22;27586;51.124;4.182;2022-09-12T07:43:56;18.10;99.90
41904;DHT22;27586;51.124;4.182;2022-09-12T07:46:23;18.30;99.90
41904;DHT22;27586;51.124;4.182;2022-09-12T07:48:54;18.40;99.90
41904;DHT22;27586;51.124;4.182;2022-09-12T07:51:21;18.50;99.90
41904;DHT22;27586;51.124;4.182;2022-09-12T07:53:47;18.70;99.90
41904;DHT22;27586;51.124;4.182;2022-09-12T07:56:14;18.80;99.90
41904;DHT22;27586;51.124;4.182;2022-09-12T07:58:41;19.00;99.90
41904;DHT22;27586;51.124;4.182;2022-09-12T08:01:12;19.10;99.90
41904;DHT22;27586;51.124;4.182;2022-09-12T08:03:39;19.30;99.90
41904;DHT22;27586;51.124;4.182;2022-09-12T08:09:47;19.40;99.90
41904;DHT22;27586;51.124;4.182;2022-09-12T08:12:14;19.50;99.90
41904;DHT22;27586;51.124;4.182;2022-09-12T08:14:40;19.80;99.90
41904;DHT22;27586;51.124;4.182;2022-09-12T08:17:06;19.90;99.90
41904;DHT22;27586;51.124;4.182;2022-09-12T08:19:31;20.00;99.90
41904;DHT22;27586;51.124;4.182;2022-09-12T08:21:57;20.00;99.90
41904;DHT22;27586;51.124;4.182;2022-09-12T08:24:23;20.10;99.90
41904;DHT22;27586;51.124;4.182;2022-09-12T08:26:49;20.20;99.90
41904;DHT22;27586;51.124;4.182;2022-09-12T08:29:15;20.10;99.90
41904;DHT22;27586;51.124;4.182;2022-09-12T08:31:41;20.00;99.90
41904;DHT22;27586;51.124;4.182;2022-09-12T08:34:08;20.10;99.90
41904;DHT22;27586;51.124;4.182;2022-09-12T08:36:34;20.20;99.90
41904;DHT22;27586;51.124;4.182;2022-09-12T08:39:03;20.20;99.90
41904;DHT22;27586;51.124;4.182;2022-09-12T08:41:37;20.30;99.90
41904;DHT22;27586;51.124;4.182;2022-09-12T08:44:30;20.30;99.90
41904;DHT22;27586;51.124;4.182;2022-09-12T08:47:18;20.50;99.90
41904;DHT22;27586;51.124;4.182;2022-09-12T08:50:15;20.70;99.90
41904;DHT22;27586;51.124;4.182;2022-09-12T08:58:03;20.90;99.90
41904;DHT22;27586;51.124;4.182;2022-09-12T09:12:28;21.30;99.90
41904;DHT22;27586;51.124;4.182;2022-09-12T09:18:25;21.60;99.90
41904;DHT22;27586;51.124;4.182;2022-09-12T09:20:53;21.70;99.90
41904;DHT22;27586;51.124;4.182;2022-09-12T09:23:30;21.50;99.90
41904;DHT22;27586;51.124;4.182;2022-09-12T09:28:46;22.00;99.90
41904;DHT22;27586;51.124;4.182;2022-09-12T09:31:22;22.10;99.90
41904;DHT22;27586;51.124;4.182;2022-09-12T09:33:51;22.20;99.90
41904;DHT22;27586;51.124;4.182;2022-09-12T09:39:04;22.10;99.90
41904;DHT22;27586;51.124;4.182;2022-09-12T09:41:36;22.20;99.90
41904;DHT22;27586;51.124;4.182;2022-09-12T09:44:04;22.20;99.90
41904;DHT22;27586;51.124;4.182;2022-09-12T09:46:31;22.30;99.90
41904;DHT22;27586;51.124;4.182;2022-09-12T09:48:57;22.30;99.90
41904;DHT22;27586;51.124;4.182;2022-09-12T09:51:32;22.30;99.90
41904;DHT22;27586;51.124;4.182;2022-09-12T09:54:23;22.50;99.90
41904;DHT22;27586;51.124;4.182;2022-09-12T09:56:50;22.60;99.90
41904;DHT22;27586;51.124;4.182;2022-09-12T09:59:32;22.50;99.90
41904;DHT22;27586;51.124;4.182;2022-09-12T10:02:01;22.70;99.90
41904;DHT22;27586;51.124;4.182;2022-09-12T10:04:30;22.70;99.90
41904;DHT22;27586;51.124;4.182;2022-09-12T10:07:01;22.70;99.90
41904;DHT22;27586;51.124;4.182;2022-09-12T10:09:30;23.00;99.90
41904;DHT22;27586;51.124;4.182;2022-09-12T10:11:58;23.10;99.90
41904;DHT22;27586;51.124;4.182;2022-09-12T10:17:00;23.30;99.90
41904;DHT22;27586;51.124;4.182;2022-09-12T10:19:38;23.10;99.90
41904;DHT22;27586;51.124;4.182;2022-09-12T10:22:16;23.10;99.90
41904;DHT22;27586;51.124;4.182;2022-09-12T10:24:47;23.20;99.90
41904;DHT22;27586;51.124;4.182;2022-09-12T10:27:22;23.30;99.90
41904;DHT22;27586;51.124;4.182;2022-09-12T10:30:16;23.30;99.90
41904;DHT22;27586;51.124;4.182;2022-09-12T10:32:48;23.50;99.90
41904;DHT22;27586;51.124;4.182;2022-09-12T10:35:26;23.40;99.90
41904;DHT22;27586;51.124;4.182;2022-09-12T10:37:58;23.60;99.90
41904;DHT22;27586;51.124;4.182;2022-09-12T10:40:30;23.50;99.90
41904;DHT22;27586;51.124;4.182;2022-09-12T10:42:59;23.60;99.90
41904;DHT22;27586;51.124;4.182;2022-09-12T10:48:00;23.70;99.90
41904;DHT22;27586;51.124;4.182;2022-09-12T10:50:40;23.70;99.90
41904;DHT22;27586;51.124;4.182;2022-09-12T10:53:22;23.70;99.90
41904;DHT22;27586;51.124;4.182;2022-09-12T11:17:52;23.90;99.90
41904;DHT22;27586;51.124;4.182;2022-09-12T11:33:52;24.40;99.90
41904;DHT22;27586;51.124;4.182;2022-09-12T11:39:27;24.40;99.90
41904;DHT22;27586;51.124;4.182;2022-09-12T11:42:01;24.40;99.90
41904;DHT22;27586;51.124;4.182;2022-09-12T11:46:58;24.40;99.90
41904;DHT22;27586;51.124;4.182;2022-09-12T11:49:30;24.20;99.90
41904;DHT22;27586;51.124;4.182;2022-09-12T11:54:54;24.50;99.90
41904;DHT22;27586;51.124;4.182;2022-09-12T11:57:38;24.70;99.90
41904;DHT22;27586;51.124;4.182;2022-09-12T12:00:08;24.60;99.90
41904;DHT22;27586;51.124;4.182;2022-09-12T12:08:00;24.40;99.90
41904;DHT22;27586;51.124;4.182;2022-09-12T12:10:41;24.40;99.90
41904;DHT22;27586;51.124;4.182;2022-09-12T12:15:46;24.40;99.90
41904;DHT22;27586;51.124;4.182;2022-09-12T12:18:30;24.60;99.90
41904;DHT22;27586;51.124;4.182;2022-09-12T12:24:23;24.60;99.90
41904;DHT22;27586;51.124;4.182;2022-09-12T12:27:02;24.60;99.90
41904;DHT22;27586;51.124;4.182;2022-09-12T12:29:37;24.50;99.90
41904;DHT22;27586;51.124;4.182;2022-09-12T12:35:14;24.70;99.90
41904;DHT22;27586;51.124;4.182;2022-09-12T12:37:50;24.80;99.40
41904;DHT22;27586;51.124;4.182;2022-09-12T12:40:27;24.50;99.00
41904;DHT22;27586;51.124;4.182;2022-09-12T12:43:01;24.70;99.90
41904;DHT22;27586;51.124;4.182;2022-09-12T12:47:54;24.50;99.80
41904;DHT22;27586;51.124;4.182;2022-09-12T12:50:24;24.30;99.50
41904;DHT22;27586;51.124;4.182;2022-09-12T12:55:36;24.40;99.40
41904;DHT22;27586;51.124;4.182;2022-09-12T12:58:04;24.30;99.80
41904;DHT22;27586;51.124;4.182;2022-09-12T13:00:35;24.20;99.60
41904;DHT22;27586;51.124;4.182;2022-09-12T13:05:46;24.20;99.00
41904;DHT22;27586;51.124;4.182;2022-09-12T13:10:58;23.90;99.90
41904;DHT22;27586;51.124;4.182;2022-09-12T13:13:51;24.10;99.90
41904;DHT22;27586;51.124;4.182;2022-09-12T13:16:52;24.10;99.90
41904;DHT22;27586;51.124;4.182;2022-09-12T13:19:26;24.20;99.90
41904;DHT22;27586;51.124;4.182;2022-09-12T13:24:22;24.40;99.60
41904;DHT22;27586;51.124;4.182;2022-09-12T13:26:48;24.50;99.30
41904;DHT22;27586;51.124;4.182;2022-09-12T13:29:22;24.50;99.90
41904;DHT22;27586;51.124;4.182;2022-09-12T13:31:54;24.30;98.90
41904;DHT22;27586;51.124;4.182;2022-09-12T13:34:33;24.40;99.90
41904;DHT22;27586;51.124;4.182;2022-09-12T13:39:47;24.50;99.90
41904;DHT22;27586;51.124;4.182;2022-09-12T13:42:19;24.50;99.50
41904;DHT22;27586;51.124;4.182;2022-09-12T13:45:02;24.70;99.90
41904;DHT22;27586;51.124;4.182;2022-09-12T13:47:42;24.50;99.60
41904;DHT22;27586;51.124;4.182;2022-09-12T13:50:21;24.50;99.30
41904;DHT22;27586;51.124;4.182;2022-09-12T13:52:52;24.60;98.80
41904;DHT22;27586;51.124;4.182;2022-09-12T13:55:37;24.40;98.60
41904;DHT22;27586;51.124;4.182;2022-09-12T13:58:12;24.40;99.10
41904;DHT22;27586;51.124;4.182;2022-09-12T14:00:39;24.50;98.50
41904;DHT22;27586;51.124;4.182;2022-09-12T14:03:30;24.50;98.40
41904;DHT22;27586;51.124;4.182;2022-09-12T14:06:15;24.60;98.90
41904;DHT22;27586;51.124;4.182;2022-09-12T14:08:43;24.50;99.20
41904;DHT22;27586;51.124;4.182;2022-09-12T14:11:10;24.50;99.10
41904;DHT22;27586;51.124;4.182;2022-09-12T14:13:37;24.50;98.50
41904;DHT22;27586;51.124;4.182;2022-09-12T14:16:04;24.50;99.40
41904;DHT22;27586;51.124;4.182;2022-09-12T14:18:35;24.50;98.40
41904;DHT22;27586;51.124;4.182;2022-09-12T14:21:08;24.50;99.40
41904;DHT22;27586;51.124;4.182;2022-09-12T14:23:40;24.50;99.00
41904;DHT22;27586;51.124;4.182;2022-09-12T14:26:09;24.50;98.70
41904;DHT22;27586;51.124;4.182;2022-09-12T14:28:39;24.40;98.30
41904;DHT22;27586;51.124;4.182;2022-09-12T14:31:44;24.50;98.20
41904;DHT22;27586;51.124;4.182;2022-09-12T14:34:17;24.40;98.50
41904;DHT22;27586;51.124;4.182;2022-09-12T14:36:47;24.40;99.20
41904;DHT22;27586;51.124;4.182;2022-09-12T14:39:38;24.30;98.50
41904;DHT22;27586;51.124;4.182;2022-09-12T14:42:15;24.30;98.50
41904;DHT22;27586;51.124;4.182;2022-09-12T14:44:59;24.20;98.30
41904;DHT22;27586;51.124;4.182;2022-09-12T14:47:27;24.20;99.10
41904;DHT22;27586;51.124;4.182;2022-09-12T14:49:57;24.30;98.70
41904;DHT22;27586;51.124;4.182;2022-09-12T14:57:41;24.30;99.50
41904;DHT22;27586;51.124;4.182;2022-09-12T15:02:38;24.50;99.10
41904;DHT22;27586;51.124;4.182;2022-09-12T15:07:35;24.40;98.90
41904;DHT22;27586;51.124;4.182;2022-09-12T15:10:12;24.40;98.70
41904;DHT22;27586;51.124;4.182;2022-09-12T15:12:40;24.30;97.70
41904;DHT22;27586;51.124;4.182;2022-09-12T15:15:13;24.10;98.50
41904;DHT22;27586;51.124;4.182;2022-09-12T15:17:40;24.20;99.20
41904;DHT22;27586;51.124;4.182;2022-09-12T15:20:06;24.20;99.10
41904;DHT22;27586;51.124;4.182;2022-09-12T15:22:32;24.10;99.00
41904;DHT22;27586;51.124;4.182;2022-09-12T15:24:59;24.10;98.50
41904;DHT22;27586;51.124;4.182;2022-09-12T15:27:25;24.10;98.60
41904;DHT22;27586;51.124;4.182;2022-09-12T15:29:52;24.10;98.60
41904;DHT22;27586;51.124;4.182;2022-09-12T15:32:26;24.00;98.30
41904;DHT22;27586;51.124;4.182;2022-09-12T15:34:53;24.10;99.20
41904;DHT22;27586;51.124;4.182;2022-09-12T15:37:20;23.90;98.60
41904;DHT22;27586;51.124;4.182;2022-09-12T15:39:47;23.90;99.90
41904;DHT22;27586;51.124;4.182;2022-09-12T15:42:14;23.90;99.30
41904;DHT22;27586;51.124;4.182;2022-09-12T15:44:40;23.80;99.20
41904;DHT22;27586;51.124;4.182;2022-09-12T15:47:11;23.80;99.30
41904;DHT22;27586;51.124;4.182;2022-09-12T15:49:37;23.90;99.20
41904;DHT22;27586;51.124;4.182;2022-09-12T15:52:03;23.90;98.50
41904;DHT22;27586;51.124;4.182;2022-09-12T15:54:29;24.00;99.00
41904;DHT22;27586;51.124;4.182;2022-09-12T15:56:54;23.80;98.40
41904;DHT22;27586;51.124;4.182;2022-09-12T15:59:20;23.90;99.00
41904;DHT22;27586;51.124;4.182;2022-09-12T16:01:45;23.80;99.20
41904;DHT22;27586;51.124;4.182;2022-09-12T16:04:23;23.80;98.80
41904;DHT22;27586;51.124;4.182;2022-09-12T16:06:49;23.80;98.50
41904;DHT22;27586;51.124;4.182;2022-09-12T16:09:15;23.80;98.40
41904;DHT22;27586;51.124;4.182;2022-09-12T16:11:41;23.80;98.70
41904;DHT22;27586;51.124;4.182;2022-09-12T16:14:08;23.80;98.80
41904;DHT22;27586;51.124;4.182;2022-09-12T16:16:34;23.70;99.00
41904;DHT22;27586;51.124;4.182;2022-09-12T16:19:00;23.80;98.90
41904;DHT22;27586;51.124;4.182;2022-09-12T16:21:26;23.80;99.30
41904;DHT22;27586;51.124;4.182;2022-09-12T16:23:51;23.70;99.20
41904;DHT22;27586;51.124;4.182;2022-09-12T16:26:17;23.90;99.50
41904;DHT22;27586;51.124;4.182;2022-09-12T16:28:43;24.00;99.20
41904;DHT22;27586;51.124;4.182;2022-09-12T16:31:11;23.80;98.80
41904;DHT22;27586;51.124;4.182;2022-09-12T16:33:37;23.80;99.00
41904;DHT22;27586;51.124;4.182;2022-09-12T16:36:10;23.80;99.00
41904;DHT22;27586;51.124;4.182;2022-09-12T16:38:47;23.70;99.50
41904;DHT22;27586;51.124;4.182;2022-09-12T16:41:13;23.70;99.50
41904;DHT22;27586;51.124;4.182;2022-09-12T16:43:40;23.60;99.60
41904;DHT22;27586;51.124;4.182;2022-09-12T16:46:18;23.50;99.80
41904;DHT22;27586;51.124;4.182;2022-09-12T16:48:46;23.50;99.90
41904;DHT22;27586;51.124;4.182;2022-09-12T16:51:13;23.50;99.90
41904;DHT22;27586;51.124;4.182;2022-09-12T16:53:40;23.40;99.90
41904;DHT22;27586;51.124;4.182;2022-09-12T16:56:06;23.40;99.90
41904;DHT22;27586;51.124;4.182;2022-09-12T16:58:33;23.40;99.90
41904;DHT22;27586;51.124;4.182;2022-09-12T17:01:07;23.30;99.90
41904;DHT22;27586;51.124;4.182;2022-09-12T17:03:34;23.40;99.90
41904;DHT22;27586;51.124;4.182;2022-09-12T17:06:07;23.20;99.90
41904;DHT22;27586;51.124;4.182;2022-09-12T17:08:35;23.30;99.90
41904;DHT22;27586;51.124;4.182;2022-09-12T17:11:09;23.30;99.90
41904;DHT22;27586;51.124;4.182;2022-09-12T17:13:35;23.30;99.90
41904;DHT22;27586;51.124;4.182;2022-09-12T17:16:05;23.30;99.90
41904;DHT22;27586;51.124;4.182;2022-09-12T17:18:31;23.30;99.90
41904;DHT22;27586;51.124;4.182;2022-09-12T17:20:57;23.20;99.90
41904;DHT22;27586;51.124;4.182;2022-09-12T17:23:22;23.20;99.90
41904;DHT22;27586;51.124;4.182;2022-09-12T17:25:49;23.00;99.90
41904;DHT22;27586;51.124;4.182;2022-09-12T17:28:18;23.00;99.90
41904;DHT22;27586;51.124;4.182;2022-09-12T17:30:44;23.00;99.90
41904;DHT22;27586;51.124;4.182;2022-09-12T17:33:10;22.90;99.90
41904;DHT22;27586;51.124;4.182;2022-09-12T17:35:37;22.80;99.90
41904;DHT22;27586;51.124;4.182;2022-09-12T17:38:04;22.80;99.90
41904;DHT22;27586;51.124;4.182;2022-09-12T17:40:30;22.60;99.90
41904;DHT22;27586;51.124;4.182;2022-09-12T17:42:56;22.50;99.90
41904;DHT22;27586;51.124;4.182;2022-09-12T17:45:22;22.50;99.90
41904;DHT22;27586;51.124;4.182;2022-09-12T17:47:48;22.40;99.90
41904;DHT22;27586;51.124;4.182;2022-09-12T17:50:14;22.30;99.90
41904;DHT22;27586;51.124;4.182;2022-09-12T17:52:42;22.20;99.90
41904;DHT22;27586;51.124;4.182;2022-09-12T17:55:09;22.10;99.90
41904;DHT22;27586;51.124;4.182;2022-09-12T17:57:35;22.10;99.90
41904;DHT22;27586;51.124;4.182;2022-09-12T18:00:01;22.00;99.90
41904;DHT22;27586;51.124;4.182;2022-09-12T18:02:27;22.00;99.90
41904;DHT22;27586;51.124;4.182;2022-09-12T18:04:53;21.90;99.90
41904;DHT22;27586;51.124;4.182;2022-09-12T18:07:19;21.80;99.90
41904;DHT22;27586;51.124;4.182;2022-09-12T18:09:45;21.80;99.90
41904;DHT22;27586;51.124;4.182;2022-09-12T18:12:13;21.80;99.90
41904;DHT22;27586;51.124;4.182;2022-09-12T18:14:39;21.70;99.90
41904;DHT22;27586;51.124;4.182;2022-09-12T18:17:06;21.60;99.90
41904;DHT22;27586;51.124;4.182;2022-09-12T18:19:33;21.50;99.90
41904;DHT22;27586;51.124;4.182;2022-09-12T18:22:00;21.50;99.90
41904;DHT22;27586;51.124;4.182;2022-09-12T18:24:26;21.40;99.90
41904;DHT22;27586;51.124;4.182;2022-09-12T18:26:52;21.40;99.90
41904;DHT22;27586;51.124;4.182;2022-09-12T18:29:21;21.30;99.90
41904;DHT22;27586;51.124;4.182;2022-09-12T18:31:47;21.20;99.90
41904;DHT22;27586;51.124;4.182;2022-09-12T18:34:13;21.10;99.90